sensor_id;sensor_type;location;lat;lon;timestamp;pressure;altitude;pressure_sealevel;temperature;humidity
43480;BME280;29067;35.492;-97.520;2024-03-02T00:01:47;97064.61;;;12.53;44.20
43480;BME280;29067;35.492;-97.520;2024-03-02T00:04:15;97063.49;;;12.35;44.57
43480;BME280;29067;35.492;-97.520;2024-03-02T00:06:43;97065.45;;;11.00;46.87
43480;BME280;29067;35.492;-97.520;2024-03-02T00:09:11;97063.69;;;10.17;47.90
43480;BME280;29067;35.492;-97.520;2024-03-02T00:11:39;97063.68;;;10.55;48.11
43480;BME280;29067;35.492;-97.520;2024-03-02T00:14:07;97061.45;;;11.72;46.92
43480;BME280;29067;35.492;-97.520;2024-03-02T00:16:35;97058.80;;;11.71;45.84
43480;BME280;29067;35.492;-97.520;2024-03-02T00:19:03;97064.14;;;10.59;48.34
43480;BME280;29067;35.492;-97.520;2024-03-02T00:21:33;97060.23;;;10.43;48.60
43480;BME280;29067;35.492;-97.520;2024-03-02T00:24:06;97056.56;;;11.66;47.21
43480;BME280;29067;35.492;-97.520;2024-03-02T00:26:36;97055.70;;;12.39;46.26
43480;BME280;29067;35.492;-97.520;2024-03-02T00:29:04;97060.32;;;11.03;46.88
43480;BME280;29067;35.492;-97.520;2024-03-02T00:31:32;97059.69;;;12.39;45.88
43480;BME280;29067;35.492;-97.520;2024-03-02T00:34:00;97060.71;;;10.32;48.70
43480;BME280;29067;35.492;-97.520;2024-03-02T00:36:32;97061.03;;;10.16;49.29
43480;BME280;29067;35.492;-97.520;2024-03-02T00:39:00;97065.25;;;9.83;49.65
43480;BME280;29067;35.492;-97.520;2024-03-02T00:41:30;97065.17;;;10.41;49.11
43480;BME280;29067;35.492;-97.520;2024-03-02T00:44:00;97074.24;;;9.87;50.40
43480;BME280;29067;35.492;-97.520;2024-03-02T00:46:33;97074.38;;;9.05;52.56
43480;BME280;29067;35.492;-97.520;2024-03-02T00:49:02;97071.57;;;10.09;51.42
43480;BME280;29067;35.492;-97.520;2024-03-02T00:51:32;97076.62;;;11.67;48.53
43480;BME280;29067;35.492;-97.520;2024-03-02T00:54:01;97078.47;;;9.28;51.30
43480;BME280;29067;35.492;-97.520;2024-03-02T00:56:30;97079.30;;;9.69;50.29
43480;BME280;29067;35.492;-97.520;2024-03-02T00:58:58;97086.03;;;7.73;54.46
43480;BME280;29067;35.492;-97.520;2024-03-02T01:01:26;97087.33;;;9.22;52.37
43480;BME280;29067;35.492;-97.520;2024-03-02T01:03:54;97086.16;;;9.92;51.97
43480;BME280;29067;35.492;-97.520;2024-03-02T01:06:21;97091.12;;;9.52;52.19
43480;BME280;29067;35.492;-97.520;2024-03-02T01:08:49;97093.42;;;8.35;54.57
43480;BME280;29067;35.492;-97.520;2024-03-02T01:11:17;97091.65;;;8.94;53.74
43480;BME280;29067;35.492;-97.520;2024-03-02T01:13:45;97091.23;;;8.66;53.99
43480;BME280;29067;35.492;-97.520;2024-03-02T01:16:13;97090.14;;;7.61;55.68
43480;BME280;29067;35.492;-97.520;2024-03-02T01:18:41;97087.32;;;8.65;55.00
43480;BME280;29067;35.492;-97.520;2024-03-02T01:21:09;97084.24;;;8.52;56.07
43480;BME280;29067;35.492;-97.520;2024-03-02T01:23:37;97082.32;;;8.82;54.62
43480;BME280;29067;35.492;-97.520;2024-03-02T01:26:05;97081.26;;;8.61;53.59
43480;BME280;29067;35.492;-97.520;2024-03-02T01:28:33;97084.27;;;9.08;54.48
43480;BME280;29067;35.492;-97.520;2024-03-02T01:31:01;97085.21;;;7.83;56.14
43480;BME280;29067;35.492;-97.520;2024-03-02T01:33:29;97082.59;;;8.68;55.33
43480;BME280;29067;35.492;-97.520;2024-03-02T01:35:57;97095.11;;;6.84;58.68
43480;BME280;29067;35.492;-97.520;2024-03-02T01:38:24;97100.50;;;5.90;60.38
43480;BME280;29067;35.492;-97.520;2024-03-02T01:40:52;97094.05;;;6.94;59.15
43480;BME280;29067;35.492;-97.520;2024-03-02T01:43:20;97094.40;;;8.03;57.17
43480;BME280;29067;35.492;-97.520;2024-03-02T01:45:47;97097.27;;;7.89;56.87
43480;BME280;29067;35.492;-97.520;2024-03-02T01:48:15;97109.02;;;6.39;59.67
43480;BME280;29067;35.492;-97.520;2024-03-02T01:50:43;97109.69;;;5.45;61.86
43480;BME280;29067;35.492;-97.520;2024-03-02T01:53:12;97102.42;;;7.69;57.88
43480;BME280;29067;35.492;-97.520;2024-03-02T01:55:40;97097.73;;;8.48;56.82
43480;BME280;29067;35.492;-97.520;2024-03-02T01:58:08;97101.34;;;8.31;56.43
43480;BME280;29067;35.492;-97.520;2024-03-02T02:00:36;97100.52;;;8.54;54.86
43480;BME280;29067;35.492;-97.520;2024-03-02T02:03:04;97102.09;;;8.67;55.31
43480;BME280;29067;35.492;-97.520;2024-03-02T02:05:32;97109.69;;;7.10;58.87
43480;BME280;29067;35.492;-97.520;2024-03-02T02:08:01;97111.72;;;6.40;60.02
43480;BME280;29067;35.492;-97.520;2024-03-02T02:10:29;97106.78;;;6.69;59.29
43480;BME280;29067;35.492;-97.520;2024-03-02T02:12:57;97107.32;;;6.79;59.74
43480;BME280;29067;35.492;-97.520;2024-03-02T02:15:26;97109.79;;;7.13;59.18
43480;BME280;29067;35.492;-97.520;2024-03-02T02:17:55;97105.70;;;7.20;58.02
43480;BME280;29067;35.492;-97.520;2024-03-02T02:20:23;97103.82;;;7.89;57.91
43480;BME280;29067;35.492;-97.520;2024-03-02T02:22:56;97097.76;;;7.67;57.43
43480;BME280;29067;35.492;-97.520;2024-03-02T02:25:23;97097.76;;;7.90;57.62
43480;BME280;29067;35.492;-97.520;2024-03-02T02:27:52;97104.89;;;7.31;58.82
43480;BME280;29067;35.492;-97.520;2024-03-02T02:30:21;97102.54;;;7.42;59.39
43480;BME280;29067;35.492;-97.520;2024-03-02T02:32:49;97103.15;;;7.62;58.93
43480;BME280;29067;35.492;-97.520;2024-03-02T02:35:17;97102.94;;;7.47;59.28
43480;BME280;29067;35.492;-97.520;2024-03-02T02:37:46;97106.08;;;7.08;59.49
43480;BME280;29067;35.492;-97.520;2024-03-02T02:40:15;97104.39;;;4.92;65.44
43480;BME280;29067;35.492;-97.520;2024-03-02T02:42:43;97102.48;;;6.10;64.01
43480;BME280;29067;35.492;-97.520;2024-03-02T02:45:11;97105.87;;;5.43;66.51
43480;BME280;29067;35.492;-97.520;2024-03-02T02:47:39;97106.90;;;7.31;61.29
43480;BME280;29067;35.492;-97.520;2024-03-02T02:50:08;97108.82;;;5.09;66.41
43480;BME280;29067;35.492;-97.520;2024-03-02T02:52:39;97109.51;;;6.31;64.51
43480;BME280;29067;35.492;-97.520;2024-03-02T02:55:09;97116.71;;;5.69;67.52
43480;BME280;29067;35.492;-97.520;2024-03-02T02:57:38;97107.91;;;6.31;64.04
43480;BME280;29067;35.492;-97.520;2024-03-02T03:00:08;97109.91;;;4.51;68.35
43480;BME280;29067;35.492;-97.520;2024-03-02T03:02:37;97106.86;;;5.93;65.76
43480;BME280;29067;35.492;-97.520;2024-03-02T03:05:06;97102.17;;;6.45;65.56
43480;BME280;29067;35.492;-97.520;2024-03-02T03:07:34;97107.67;;;5.97;64.75
43480;BME280;29067;35.492;-97.520;2024-03-02T03:10:02;97108.22;;;6.05;64.42
43480;BME280;29067;35.492;-97.520;2024-03-02T03:12:30;97112.77;;;5.33;67.05
43480;BME280;29067;35.492;-97.520;2024-03-02T03:14:58;97109.45;;;6.00;66.33
43480;BME280;29067;35.492;-97.520;2024-03-02T03:17:26;97114.40;;;4.76;69.17
43480;BME280;29067;35.492;-97.520;2024-03-02T03:19:54;97122.04;;;4.95;66.88
43480;BME280;29067;35.492;-97.520;2024-03-02T03:22:22;97119.04;;;5.84;65.91
43480;BME280;29067;35.492;-97.520;2024-03-02T03:24:50;97119.93;;;6.93;63.61
43480;BME280;29067;35.492;-97.520;2024-03-02T03:27:18;97124.42;;;5.88;65.22
43480;BME280;29067;35.492;-97.520;2024-03-02T03:29:46;97128.22;;;5.63;64.65
43480;BME280;29067;35.492;-97.520;2024-03-02T03:32:14;97128.53;;;6.33;64.65
43480;BME280;29067;35.492;-97.520;2024-03-02T03:34:41;97122.08;;;5.39;66.56
43480;BME280;29067;35.492;-97.520;2024-03-02T03:37:09;97123.76;;;4.95;69.53
43480;BME280;29067;35.492;-97.520;2024-03-02T03:39:37;97113.53;;;5.29;67.50
43480;BME280;29067;35.492;-97.520;2024-03-02T03:42:05;97117.06;;;6.23;65.62
43480;BME280;29067;35.492;-97.520;2024-03-02T03:44:34;97123.72;;;5.14;67.78
43480;BME280;29067;35.492;-97.520;2024-03-02T03:47:01;97119.14;;;5.83;67.32
43480;BME280;29067;35.492;-97.520;2024-03-02T03:49:29;97119.22;;;5.64;66.79
43480;BME280;29067;35.492;-97.520;2024-03-02T03:51:58;97117.46;;;6.31;65.47
43480;BME280;29067;35.492;-97.520;2024-03-02T03:54:26;97122.29;;;4.39;71.12
43480;BME280;29067;35.492;-97.520;2024-03-02T03:56:53;97117.57;;;5.37;69.76
43480;BME280;29067;35.492;-97.520;2024-03-02T03:59:21;97116.71;;;5.56;67.96
43480;BME280;29067;35.492;-97.520;2024-03-02T04:01:49;97117.82;;;5.80;67.97
43480;BME280;29067;35.492;-97.520;2024-03-02T04:04:17;97114.19;;;5.04;68.87
43480;BME280;29067;35.492;-97.520;2024-03-02T04:06:45;97114.76;;;4.95;69.46
43480;BME280;29067;35.492;-97.520;2024-03-02T04:09:13;97113.30;;;5.72;68.41
43480;BME280;29067;35.492;-97.520;2024-03-02T04:11:41;97107.06;;;6.23;67.59
43480;BME280;29067;35.492;-97.520;2024-03-02T04:14:09;97107.68;;;4.60;70.04
43480;BME280;29067;35.492;-97.520;2024-03-02T04:16:37;97115.12;;;5.31;69.69
43480;BME280;29067;35.492;-97.520;2024-03-02T04:19:05;97112.02;;;5.62;70.67
43480;BME280;29067;35.492;-97.520;2024-03-02T04:21:33;97105.87;;;5.91;70.56
43480;BME280;29067;35.492;-97.520;2024-03-02T04:24:01;97108.60;;;5.08;70.66
43480;BME280;29067;35.492;-97.520;2024-03-02T04:26:28;97107.35;;;5.06;70.15
43480;BME280;29067;35.492;-97.520;2024-03-02T04:28:56;97109.27;;;4.34;75.64
43480;BME280;29067;35.492;-97.520;2024-03-02T04:31:24;97113.98;;;4.43;74.20
43480;BME280;29067;35.492;-97.520;2024-03-02T04:33:52;97100.45;;;5.64;69.77
43480;BME280;29067;35.492;-97.520;2024-03-02T04:36:20;97108.42;;;4.88;71.36
43480;BME280;29067;35.492;-97.520;2024-03-02T04:38:48;97104.58;;;4.48;72.97
43480;BME280;29067;35.492;-97.520;2024-03-02T04:41:16;97103.73;;;3.56;76.16
43480;BME280;29067;35.492;-97.520;2024-03-02T04:43:44;97102.42;;;4.98;72.47
43480;BME280;29067;35.492;-97.520;2024-03-02T04:46:12;97096.68;;;4.65;73.78
43480;BME280;29067;35.492;-97.520;2024-03-02T04:48:40;97092.46;;;4.56;74.38
43480;BME280;29067;35.492;-97.520;2024-03-02T04:51:08;97091.12;;;3.90;77.50
43480;BME280;29067;35.492;-97.520;2024-03-02T04:53:36;97094.65;;;4.43;75.69
43480;BME280;29067;35.492;-97.520;2024-03-02T04:56:04;97090.12;;;4.78;75.52
43480;BME280;29067;35.492;-97.520;2024-03-02T04:58:32;97089.23;;;4.07;76.16
43480;BME280;29067;35.492;-97.520;2024-03-02T05:01:00;97088.08;;;5.19;72.87
43480;BME280;29067;35.492;-97.520;2024-03-02T05:03:28;97094.94;;;4.56;76.48
43480;BME280;29067;35.492;-97.520;2024-03-02T05:05:56;97091.97;;;4.40;79.49
43480;BME280;29067;35.492;-97.520;2024-03-02T05:08:24;97089.50;;;4.25;79.22
43480;BME280;29067;35.492;-97.520;2024-03-02T05:10:52;97091.50;;;4.89;78.17
43480;BME280;29067;35.492;-97.520;2024-03-02T05:13:20;97087.99;;;3.95;83.48
43480;BME280;29067;35.492;-97.520;2024-03-02T05:15:48;97078.84;;;4.75;79.56
43480;BME280;29067;35.492;-97.520;2024-03-02T05:18:16;97084.87;;;3.92;81.56
43480;BME280;29067;35.492;-97.520;2024-03-02T05:20:44;97086.77;;;3.38;82.72
43480;BME280;29067;35.492;-97.520;2024-03-02T05:23:12;97082.65;;;4.24;79.15
43480;BME280;29067;35.492;-97.520;2024-03-02T05:25:40;97079.22;;;4.69;77.36
43480;BME280;29067;35.492;-97.520;2024-03-02T05:28:08;97076.43;;;4.67;77.47
43480;BME280;29067;35.492;-97.520;2024-03-02T05:30:36;97068.93;;;4.58;76.40
43480;BME280;29067;35.492;-97.520;2024-03-02T05:33:04;97062.67;;;3.72;79.99
43480;BME280;29067;35.492;-97.520;2024-03-02T05:35:32;97059.87;;;4.65;78.44
43480;BME280;29067;35.492;-97.520;2024-03-02T05:37:59;97049.32;;;4.62;76.25
43480;BME280;29067;35.492;-97.520;2024-03-02T05:40:27;97040.70;;;4.89;73.84
43480;BME280;29067;35.492;-97.520;2024-03-02T05:42:55;97043.06;;;4.32;75.77
43480;BME280;29067;35.492;-97.520;2024-03-02T05:45:23;97042.70;;;4.37;76.45
43480;BME280;29067;35.492;-97.520;2024-03-02T05:47:51;97039.32;;;4.38;75.84
43480;BME280;29067;35.492;-97.520;2024-03-02T05:50:19;97037.26;;;3.99;77.46
43480;BME280;29067;35.492;-97.520;2024-03-02T05:52:47;97043.42;;;3.59;81.26
43480;BME280;29067;35.492;-97.520;2024-03-02T05:55:15;97037.96;;;4.11;83.10
43480;BME280;29067;35.492;-97.520;2024-03-02T05:57:43;97033.13;;;4.01;83.19
43480;BME280;29067;35.492;-97.520;2024-03-02T06:00:12;97020.45;;;5.10;79.43
43480;BME280;29067;35.492;-97.520;2024-03-02T06:02:40;97024.78;;;4.59;80.93
43480;BME280;29067;35.492;-97.520;2024-03-02T06:05:08;97020.34;;;4.69;79.57
43480;BME280;29067;35.492;-97.520;2024-03-02T06:07:36;97018.50;;;4.83;79.31
43480;BME280;29067;35.492;-97.520;2024-03-02T06:10:05;97027.56;;;3.41;80.82
43480;BME280;29067;35.492;-97.520;2024-03-02T06:12:33;97013.08;;;4.63;80.90
43480;BME280;29067;35.492;-97.520;2024-03-02T06:15:02;97011.31;;;4.43;78.96
43480;BME280;29067;35.492;-97.520;2024-03-02T06:17:29;97003.57;;;5.15;75.26
43480;BME280;29067;35.492;-97.520;2024-03-02T06:19:57;97005.68;;;4.66;77.01
43480;BME280;29067;35.492;-97.520;2024-03-02T06:22:25;97006.64;;;5.02;75.23
43480;BME280;29067;35.492;-97.520;2024-03-02T06:24:53;96995.02;;;4.77;75.79
43480;BME280;29067;35.492;-97.520;2024-03-02T06:27:21;97003.19;;;5.88;74.94
43480;BME280;29067;35.492;-97.520;2024-03-02T06:29:48;97004.37;;;4.71;77.84
43480;BME280;29067;35.492;-97.520;2024-03-02T06:32:16;97002.70;;;4.74;75.98
43480;BME280;29067;35.492;-97.520;2024-03-02T06:34:44;97003.45;;;3.95;81.23
43480;BME280;29067;35.492;-97.520;2024-03-02T06:37:12;96997.83;;;4.32;80.26
43480;BME280;29067;35.492;-97.520;2024-03-02T06:39:40;96995.18;;;4.71;80.44
43480;BME280;29067;35.492;-97.520;2024-03-02T06:42:08;96993.43;;;5.45;78.27
43480;BME280;29067;35.492;-97.520;2024-03-02T06:44:36;96994.63;;;5.11;75.81
43480;BME280;29067;35.492;-97.520;2024-03-02T06:47:04;96997.91;;;4.35;78.59
43480;BME280;29067;35.492;-97.520;2024-03-02T06:49:32;96997.05;;;3.96;78.32
43480;BME280;29067;35.492;-97.520;2024-03-02T06:52:00;96995.66;;;4.19;79.96
43480;BME280;29067;35.492;-97.520;2024-03-02T06:54:28;96985.22;;;5.92;75.51
43480;BME280;29067;35.492;-97.520;2024-03-02T06:56:56;96994.02;;;4.33;79.97
43480;BME280;29067;35.492;-97.520;2024-03-02T06:59:24;96989.57;;;5.01;78.98
43480;BME280;29067;35.492;-97.520;2024-03-02T07:01:52;96989.23;;;4.49;81.21
43480;BME280;29067;35.492;-97.520;2024-03-02T07:04:20;96983.79;;;3.48;83.57
43480;BME280;29067;35.492;-97.520;2024-03-02T07:06:47;96982.30;;;4.40;81.95
43480;BME280;29067;35.492;-97.520;2024-03-02T07:09:15;96983.20;;;4.18;82.41
43480;BME280;29067;35.492;-97.520;2024-03-02T07:11:44;96984.86;;;4.06;82.75
43480;BME280;29067;35.492;-97.520;2024-03-02T07:14:11;96987.39;;;4.56;85.06
43480;BME280;29067;35.492;-97.520;2024-03-02T07:16:39;96989.68;;;3.15;87.25
43480;BME280;29067;35.492;-97.520;2024-03-02T07:19:07;96991.70;;;4.01;87.80
43480;BME280;29067;35.492;-97.520;2024-03-02T07:21:35;96991.47;;;3.72;87.36
43480;BME280;29067;35.492;-97.520;2024-03-02T07:24:03;97000.04;;;3.56;88.97
43480;BME280;29067;35.492;-97.520;2024-03-02T07:26:31;96999.33;;;4.44;85.93
43480;BME280;29067;35.492;-97.520;2024-03-02T07:28:59;96993.89;;;3.61;89.16
43480;BME280;29067;35.492;-97.520;2024-03-02T07:31:27;96993.66;;;4.52;84.72
43480;BME280;29067;35.492;-97.520;2024-03-02T07:33:55;96989.69;;;3.76;90.11
43480;BME280;29067;35.492;-97.520;2024-03-02T07:36:24;96990.06;;;3.78;91.67
43480;BME280;29067;35.492;-97.520;2024-03-02T07:38:52;96987.51;;;4.51;86.40
43480;BME280;29067;35.492;-97.520;2024-03-02T07:41:20;96991.35;;;3.61;91.15
43480;BME280;29067;35.492;-97.520;2024-03-02T07:43:48;96986.63;;;2.88;93.12
43480;BME280;29067;35.492;-97.520;2024-03-02T07:46:15;96981.85;;;3.54;94.68
43480;BME280;29067;35.492;-97.520;2024-03-02T07:48:43;96982.75;;;3.55;91.89
43480;BME280;29067;35.492;-97.520;2024-03-02T07:51:11;96985.64;;;3.25;94.77
43480;BME280;29067;35.492;-97.520;2024-03-02T07:53:39;96991.37;;;2.30;100.00
43480;BME280;29067;35.492;-97.520;2024-03-02T07:56:08;96978.45;;;2.98;100.00
43480;BME280;29067;35.492;-97.520;2024-03-02T07:58:36;96978.71;;;3.74;96.50
43480;BME280;29067;35.492;-97.520;2024-03-02T08:01:04;96965.91;;;3.40;97.20
43480;BME280;29067;35.492;-97.520;2024-03-02T08:03:32;96971.27;;;3.11;97.16
43480;BME280;29067;35.492;-97.520;2024-03-02T08:06:00;96957.66;;;2.62;99.73
43480;BME280;29067;35.492;-97.520;2024-03-02T08:08:28;96956.98;;;3.37;96.63
43480;BME280;29067;35.492;-97.520;2024-03-02T08:10:56;96959.55;;;3.32;96.77
43480;BME280;29067;35.492;-97.520;2024-03-02T08:13:24;96954.48;;;3.38;94.00
43480;BME280;29067;35.492;-97.520;2024-03-02T08:15:52;96947.19;;;3.22;96.55
43480;BME280;29067;35.492;-97.520;2024-03-02T08:18:20;96947.26;;;3.09;97.90
43480;BME280;29067;35.492;-97.520;2024-03-02T08:20:48;96941.31;;;3.59;97.07
43480;BME280;29067;35.492;-97.520;2024-03-02T08:23:18;96939.93;;;3.26;96.61
43480;BME280;29067;35.492;-97.520;2024-03-02T08:25:46;96938.29;;;3.59;98.09
43480;BME280;29067;35.492;-97.520;2024-03-02T08:28:14;96935.50;;;3.16;99.07
43480;BME280;29067;35.492;-97.520;2024-03-02T08:30:42;96933.79;;;3.49;97.15
43480;BME280;29067;35.492;-97.520;2024-03-02T08:33:10;96925.92;;;3.74;94.86
43480;BME280;29067;35.492;-97.520;2024-03-02T08:35:38;96925.01;;;3.69;97.46
43480;BME280;29067;35.492;-97.520;2024-03-02T08:38:06;96921.56;;;3.98;95.17
43480;BME280;29067;35.492;-97.520;2024-03-02T08:40:34;96921.65;;;3.76;96.54
43480;BME280;29067;35.492;-97.520;2024-03-02T08:43:02;96914.63;;;3.89;93.77
43480;BME280;29067;35.492;-97.520;2024-03-02T08:45:30;96908.59;;;2.81;100.00
43480;BME280;29067;35.492;-97.520;2024-03-02T08:47:59;96918.06;;;3.09;100.00
43480;BME280;29067;35.492;-97.520;2024-03-02T08:50:27;96909.65;;;3.80;97.04
43480;BME280;29067;35.492;-97.520;2024-03-02T08:52:54;96899.22;;;3.52;100.00
43480;BME280;29067;35.492;-97.520;2024-03-02T08:55:22;96901.81;;;3.42;99.63
43480;BME280;29067;35.492;-97.520;2024-03-02T08:57:50;96896.45;;;3.46;94.27
43480;BME280;29067;35.492;-97.520;2024-03-02T09:00:19;96900.93;;;3.02;99.63
43480;BME280;29067;35.492;-97.520;2024-03-02T09:02:47;96895.36;;;3.69;100.00
43480;BME280;29067;35.492;-97.520;2024-03-02T09:05:15;96897.32;;;3.14;100.00
43480;BME280;29067;35.492;-97.520;2024-03-02T09:07:43;96886.54;;;3.76;98.23
43480;BME280;29067;35.492;-97.520;2024-03-02T09:10:11;96890.29;;;3.59;98.13
43480;BME280;29067;35.492;-97.520;2024-03-02T09:12:39;96884.94;;;3.73;96.31
43480;BME280;29067;35.492;-97.520;2024-03-02T09:15:08;96881.24;;;4.00;98.64
43480;BME280;29067;35.492;-97.520;2024-03-02T09:17:36;96881.24;;;3.09;98.74
43480;BME280;29067;35.492;-97.520;2024-03-02T09:20:05;96880.18;;;3.53;97.46
43480;BME280;29067;35.492;-97.520;2024-03-02T09:22:32;96881.31;;;3.60;99.76
43480;BME280;29067;35.492;-97.520;2024-03-02T09:25:00;96870.08;;;4.02;98.89
43480;BME280;29067;35.492;-97.520;2024-03-02T09:27:28;96871.30;;;3.79;98.85
43480;BME280;29067;35.492;-97.520;2024-03-02T09:29:56;96875.28;;;4.27;94.95
43480;BME280;29067;35.492;-97.520;2024-03-02T09:32:24;96871.58;;;4.44;94.51
43480;BME280;29067;35.492;-97.520;2024-03-02T09:34:52;96865.81;;;4.87;90.85
43480;BME280;29067;35.492;-97.520;2024-03-02T09:37:20;96865.03;;;4.44;90.56
43480;BME280;29067;35.492;-97.520;2024-03-02T09:39:49;96870.61;;;4.05;91.19
43480;BME280;29067;35.492;-97.520;2024-03-02T09:42:17;96864.16;;;4.36;92.01
43480;BME280;29067;35.492;-97.520;2024-03-02T09:44:46;96857.59;;;4.51;85.58
43480;BME280;29067;35.492;-97.520;2024-03-02T09:47:14;96851.97;;;3.98;86.31
43480;BME280;29067;35.492;-97.520;2024-03-02T09:49:42;96848.58;;;3.69;88.41
43480;BME280;29067;35.492;-97.520;2024-03-02T09:52:10;96844.23;;;4.48;86.74
43480;BME280;29067;35.492;-97.520;2024-03-02T09:54:38;96848.71;;;4.72;89.94
43480;BME280;29067;35.492;-97.520;2024-03-02T09:57:06;96841.82;;;4.54;87.18
43480;BME280;29067;35.492;-97.520;2024-03-02T09:59:34;96845.58;;;3.94;88.11
43480;BME280;29067;35.492;-97.520;2024-03-02T10:02:03;96844.44;;;4.55;91.07
43480;BME280;29067;35.492;-97.520;2024-03-02T10:04:31;96841.35;;;4.35;90.77
43480;BME280;29067;35.492;-97.520;2024-03-02T10:07:16;96843.82;;;4.82;91.05
43480;BME280;29067;35.492;-97.520;2024-03-02T10:09:45;96845.03;;;4.74;90.99
43480;BME280;29067;35.492;-97.520;2024-03-02T10:12:15;96842.04;;;4.35;93.72
43480;BME280;29067;35.492;-97.520;2024-03-02T10:14:43;96839.24;;;4.64;91.81
43480;BME280;29067;35.492;-97.520;2024-03-02T10:17:12;96826.93;;;4.97;90.78
43480;BME280;29067;35.492;-97.520;2024-03-02T10:19:41;96839.31;;;4.51;89.17
43480;BME280;29067;35.492;-97.520;2024-03-02T10:22:09;96835.78;;;4.54;86.94
43480;BME280;29067;35.492;-97.520;2024-03-02T10:24:38;96837.97;;;4.70;89.11
43480;BME280;29067;35.492;-97.520;2024-03-02T10:27:09;96836.69;;;4.23;93.48
43480;BME280;29067;35.492;-97.520;2024-03-02T10:29:39;96827.64;;;4.27;93.04
43480;BME280;29067;35.492;-97.520;2024-03-02T10:32:10;96825.29;;;4.41;89.17
43480;BME280;29067;35.492;-97.520;2024-03-02T10:34:40;96827.60;;;4.60;92.29
43480;BME280;29067;35.492;-97.520;2024-03-02T10:37:08;96818.66;;;4.67;92.49
43480;BME280;29067;35.492;-97.520;2024-03-02T10:39:38;96817.59;;;4.40;92.14
43480;BME280;29067;35.492;-97.520;2024-03-02T10:42:07;96809.26;;;4.80;92.14
43480;BME280;29067;35.492;-97.520;2024-03-02T10:44:35;96816.27;;;4.03;94.18
43480;BME280;29067;35.492;-97.520;2024-03-02T10:47:04;96810.14;;;4.08;94.61
43480;BME280;29067;35.492;-97.520;2024-03-02T10:49:33;96806.09;;;4.21;94.35
43480;BME280;29067;35.492;-97.520;2024-03-02T10:52:01;96804.22;;;4.38;92.62
43480;BME280;29067;35.492;-97.520;2024-03-02T10:54:29;96803.88;;;3.66;95.62
43480;BME280;29067;35.492;-97.520;2024-03-02T10:56:59;96802.10;;;4.07;100.00
43480;BME280;29067;35.492;-97.520;2024-03-02T10:59:31;96797.48;;;4.13;95.65
43480;BME280;29067;35.492;-97.520;2024-03-02T11:02:01;96800.61;;;4.46;93.00
43480;BME280;29067;35.492;-97.520;2024-03-02T11:04:30;96800.35;;;3.72;96.01
43480;BME280;29067;35.492;-97.520;2024-03-02T11:07:02;96795.13;;;5.24;89.44
43480;BME280;29067;35.492;-97.520;2024-03-02T11:09:32;96796.45;;;4.12;95.58
43480;BME280;29067;35.492;-97.520;2024-03-02T11:12:13;96803.18;;;3.39;97.56
43480;BME280;29067;35.492;-97.520;2024-03-02T11:14:43;96792.60;;;4.02;98.92
43480;BME280;29067;35.492;-97.520;2024-03-02T11:17:14;96795.77;;;4.67;92.28
43480;BME280;29067;35.492;-97.520;2024-03-02T11:19:43;96804.07;;;4.25;92.65
43480;BME280;29067;35.492;-97.520;2024-03-02T11:22:12;96802.69;;;4.50;92.63
43480;BME280;29067;35.492;-97.520;2024-03-02T11:24:48;96802.67;;;3.66;95.13
43480;BME280;29067;35.492;-97.520;2024-03-02T11:27:59;96795.66;;;4.24;90.78
43480;BME280;29067;35.492;-97.520;2024-03-02T11:31:00;96808.75;;;3.58;97.23
43480;BME280;29067;35.492;-97.520;2024-03-02T11:33:28;96806.49;;;4.12;94.48
43480;BME280;29067;35.492;-97.520;2024-03-02T11:35:57;96801.73;;;3.84;96.71
43480;BME280;29067;35.492;-97.520;2024-03-02T11:38:30;96801.39;;;3.71;100.00
43480;BME280;29067;35.492;-97.520;2024-03-02T11:41:01;96797.86;;;4.85;92.75
43480;BME280;29067;35.492;-97.520;2024-03-02T11:43:29;96799.05;;;3.66;100.00
43480;BME280;29067;35.492;-97.520;2024-03-02T11:45:59;96796.26;;;3.79;100.00
43480;BME280;29067;35.492;-97.520;2024-03-02T11:48:27;96797.65;;;4.61;96.26
43480;BME280;29067;35.492;-97.520;2024-03-02T11:50:59;96797.06;;;3.90;95.97
43480;BME280;29067;35.492;-97.520;2024-03-02T11:53:28;96799.78;;;4.64;92.51
43480;BME280;29067;35.492;-97.520;2024-03-02T11:55:58;96792.93;;;4.45;93.23
43480;BME280;29067;35.492;-97.520;2024-03-02T11:58:27;96797.24;;;3.59;96.95
43480;BME280;29067;35.492;-97.520;2024-03-02T12:03:02;96796.81;;;3.98;94.68
43480;BME280;29067;35.492;-97.520;2024-03-02T12:05:31;96793.83;;;3.56;95.12
43480;BME280;29067;35.492;-97.520;2024-03-02T12:08:00;96794.65;;;4.03;95.41
43480;BME280;29067;35.492;-97.520;2024-03-02T12:10:30;96793.94;;;3.69;95.98
43480;BME280;29067;35.492;-97.520;2024-03-02T12:12:59;96790.64;;;3.70;96.72
43480;BME280;29067;35.492;-97.520;2024-03-02T12:15:28;96805.02;;;4.03;95.80
43480;BME280;29067;35.492;-97.520;2024-03-02T12:17:58;96805.15;;;3.54;100.00
43480;BME280;29067;35.492;-97.520;2024-03-02T12:20:27;96798.51;;;3.72;100.00
43480;BME280;29067;35.492;-97.520;2024-03-02T12:22:57;96805.39;;;3.37;100.00
43480;BME280;29067;35.492;-97.520;2024-03-02T12:25:26;96814.03;;;3.52;100.00
43480;BME280;29067;35.492;-97.520;2024-03-02T12:27:56;96816.67;;;2.54;100.00
43480;BME280;29067;35.492;-97.520;2024-03-02T12:30:26;96811.16;;;3.29;100.00
43480;BME280;29067;35.492;-97.520;2024-03-02T12:32:55;96807.02;;;4.10;100.00
43480;BME280;29067;35.492;-97.520;2024-03-02T12:35:25;96797.37;;;3.07;100.00
43480;BME280;29067;35.492;-97.520;2024-03-02T12:37:54;96809.44;;;3.12;100.00
43480;BME280;29067;35.492;-97.520;2024-03-02T12:40:22;96804.78;;;3.20;100.00
43480;BME280;29067;35.492;-97.520;2024-03-02T12:42:51;96797.56;;;4.50;93.91
43480;BME280;29067;35.492;-97.520;2024-03-02T12:45:19;96798.44;;;4.01;98.66
43480;BME280;29067;35.492;-97.520;2024-03-02T12:47:47;96795.71;;;3.99;95.45
43480;BME280;29067;35.492;-97.520;2024-03-02T12:50:15;96794.36;;;3.30;99.06
43480;BME280;29067;35.492;-97.520;2024-03-02T12:52:43;96801.34;;;3.46;100.00
43480;BME280;29067;35.492;-97.520;2024-03-02T12:55:12;96797.54;;;3.00;100.00
43480;BME280;29067;35.492;-97.520;2024-03-02T12:57:40;96796.15;;;3.26;100.00